Time;durP1;ratioP1;P1;durP2;ratioP2;P2;SDS_P1;SDS_P2;PMS_P1;PMS_P2;Temp;Humidity;BMP_temperature;BMP_pressure;BME280_temperature;BME280_humidity;BME280_pressure;Samples;Min_cycle;Max_cycle;Signal;HPM_P1;HPM_P2
2021/07/08 00:02:05;;;;;;;65.47;33.97;;;;;;;;;;4969158;28;20039;-64
2021/07/08 00:04:30;;;;;;;92.53;40.58;;;;;;;;;;4968872;28;20312;-65
2021/07/08 00:06:56;;;;;;;70.30;36.10;;;;;;;;;;4969619;28;20022;-64
2021/07/08 00:09:21;;;;;;;70.10;34.30;;;;;;;;;;4971677;28;20022;-65
2021/07/08 00:11:46;;;;;;;77.40;36.75;;;;;;;;;;4969819;28;20332;-67
2021/07/08 00:14:11;;;;;;;77.05;37.03;;;;;;;;;;4980349;28;20093;-65
2021/07/08 00:16:37;;;;;;;68.73;36.33;;;;;;;;;;4981928;28;20034;-64
2021/07/08 00:19:04;;;;;;;85.45;37.30;;;;;;;;;;4969091;28;20293;-64
2021/07/08 00:21:29;;;;;;;77.38;36.58;;;;;;;;;;4970259;28;20050;-64
2021/07/08 00:23:54;;;;;;;69.00;35.35;;;;;;;;;;4968958;28;20054;-65
2021/07/08 00:26:19;;;;;;;71.23;36.83;;;;;;;;;;4981584;28;20031;-65
2021/07/08 00:28:45;;;;;;;69.65;37.03;;;;;;;;;;4981138;28;20282;-65
2021/07/08 00:31:10;;;;;;;74.07;40.03;;;;;;;;;;4969068;28;20039;-65
2021/07/08 00:33:38;;;;;;;57.55;30.70;;;;;;;;;;4969410;28;20019;-65
2021/07/08 00:36:04;;;;;;;71.15;37.28;;;;;;;;;;4987512;28;20031;-65
2021/07/08 00:38:30;;;;;;;65.70;36.42;;;;;;;;;;4974988;28;20576;-65
2021/07/08 00:40:55;;;;;;;75.13;38.42;;;;;;;;;;4992970;28;20399;-65
2021/07/08 00:43:20;;;;;;;54.72;33.72;;;;;;;;;;4998879;28;20436;-65
2021/07/08 00:45:46;;;;;;;54.13;32.63;;;;;;;;;;4970784;28;20050;-65
2021/07/08 00:48:11;;;;;;;64.13;35.15;;;;;;;;;;4967440;28;20278;-65
2021/07/08 00:50:42;;;;;;;52.33;30.80;;;;;;;;;;4954787;28;20028;-65
2021/07/08 00:53:08;;;;;;;45.85;30.20;;;;;;;;;;4949217;28;20038;-65
2021/07/08 00:55:33;;;;;;;55.75;32.45;;;;;;;;;;4955989;28;20039;-65
2021/07/08 00:57:58;;;;;;;53.45;31.50;;;;;;;;;;4972475;28;20034;-65
2021/07/08 01:00:25;;;;;;;66.53;37.38;;;;;;;;;;4974286;28;20023;-66
2021/07/08 01:02:51;;;;;;;48.65;29.65;;;;;;;;;;4964436;28;20035;-66
2021/07/08 01:05:20;;;;;;;43.38;27.25;;;;;;;;;;4987524;28;20034;-66
2021/07/08 01:07:45;;;;;;;36.38;26.23;;;;;;;;;;4971151;28;20035;-65
2021/07/08 01:10:11;;;;;;;35.70;24.58;;;;;;;;;;4972397;28;20118;-65
2021/07/08 01:12:37;;;;;;;47.47;28.27;;;;;;;;;;4974013;28;20038;-66
2021/07/08 01:15:04;;;;;;;36.17;24.60;;;;;;;;;;4988890;28;20385;-66
2021/07/08 01:17:29;;;;;;;37.92;25.95;;;;;;;;;;4977577;28;20515;-66
2021/07/08 01:19:54;;;;;;;30.67;23.60;;;;;;;;;;4985251;28;20043;-65
2021/07/08 01:22:19;;;;;;;40.28;26.38;;;;;;;;;;4971807;28;20274;-66
2021/07/08 01:24:44;;;;;;;31.88;23.05;;;;;;;;;;4974195;28;20468;-66
2021/07/08 01:27:12;;;;;;;27.25;21.60;;;;;;;;;;4991152;28;20431;-66
2021/07/08 01:29:37;;;;;;;32.30;21.80;;;;;;;;;;4991667;28;20046;-66
2021/07/08 01:32:02;;;;;;;34.88;24.05;;;;;;;;;;4981126;28;20037;-65
2021/07/08 01:34:28;;;;;;;36.08;24.00;;;;;;;;;;4966511;28;20170;-66
2021/07/08 01:36:53;;;;;;;24.33;19.08;;;;;;;;;;4953283;28;20047;-66
2021/07/08 01:39:19;;;;;;;26.50;20.73;;;;;;;;;;4973655;28;20109;-66
2021/07/08 01:41:44;;;;;;;22.77;18.90;;;;;;;;;;4956564;28;20271;-66
2021/07/08 01:44:11;;;;;;;24.20;19.85;;;;;;;;;;4962889;28;20564;-66
2021/07/08 01:46:38;;;;;;;28.30;21.10;;;;;;;;;;4988354;28;20042;-66
2021/07/08 01:49:03;;;;;;;35.63;22.33;;;;;;;;;;4989706;28;20057;-66
2021/07/08 01:51:32;;;;;;;23.38;19.30;;;;;;;;;;4972338;28;20050;-66
2021/07/08 01:53:58;;;;;;;30.02;21.05;;;;;;;;;;4971274;28;20497;-66
2021/07/08 01:56:24;;;;;;;27.92;20.98;;;;;;;;;;4971461;28;20027;-66
2021/07/08 01:58:52;;;;;;;29.17;22.33;;;;;;;;;;4970329;28;20456;-66
2021/07/08 02:01:17;;;;;;;25.42;20.00;;;;;;;;;;4974753;28;20081;-66
2021/07/08 02:03:42;;;;;;;38.22;24.95;;;;;;;;;;4992275;28;20018;-66
2021/07/08 02:06:07;;;;;;;18.80;16.80;;;;;;;;;;4990904;28;20085;-65
2021/07/08 02:08:33;;;;;;;19.63;17.13;;;;;;;;;;4975941;28;20086;-66
2021/07/08 02:10:58;;;;;;;23.83;18.30;;;;;;;;;;4970054;28;20035;-66
2021/07/08 02:13:24;;;;;;;20.33;18.17;;;;;;;;;;4975233;28;20037;-66
2021/07/08 02:15:49;;;;;;;23.02;18.75;;;;;;;;;;4989648;28;20029;-66
2021/07/08 02:18:14;;;;;;;19.52;14.90;;;;;;;;;;4990405;28;20038;-66
2021/07/08 02:20:40;;;;;;;18.30;15.35;;;;;;;;;;4990468;28;20129;-65
2021/07/08 02:23:06;;;;;;;19.13;16.13;;;;;;;;;;4990103;28;20042;-65
2021/07/08 02:25:31;;;;;;;16.92;15.27;;;;;;;;;;4984877;28;20027;-66
2021/07/08 02:27:58;;;;;;;16.08;14.55;;;;;;;;;;4970812;28;20019;-66
2021/07/08 02:30:24;;;;;;;14.77;13.43;;;;;;;;;;4973002;28;20091;-66
2021/07/08 02:32:51;;;;;;;13.35;12.15;;;;;;;;;;4969981;28;20073;-65
2021/07/08 02:35:17;;;;;;;12.85;11.85;;;;;;;;;;4985829;28;20121;-65
2021/07/08 02:37:42;;;;;;;15.65;13.77;;;;;;;;;;4970700;28;20170;-66
2021/07/08 02:40:09;;;;;;;12.90;11.90;;;;;;;;;;4970078;28;20086;-65
2021/07/08 02:42:34;;;;;;;14.27;12.70;;;;;;;;;;4971432;28;20027;-65
2021/07/08 02:45:00;;;;;;;11.80;10.80;;;;;;;;;;4970748;28;20049;-65
2021/07/08 02:47:25;;;;;;;10.80;9.93;;;;;;;;;;4970137;28;20042;-66
2021/07/08 02:49:50;;;;;;;8.93;8.33;;;;;;;;;;4970540;28;20094;-66
2021/07/08 02:52:15;;;;;;;8.65;7.95;;;;;;;;;;4966672;28;20263;-65
2021/07/08 02:54:40;;;;;;;12.27;9.90;;;;;;;;;;4953230;28;20026;-65
2021/07/08 02:57:05;;;;;;;9.73;8.17;;;;;;;;;;4969347;28;20299;-65
2021/07/08 02:59:31;;;;;;;10.18;9.23;;;;;;;;;;4970272;28;20285;-65
2021/07/08 03:01:56;;;;;;;9.00;8.20;;;;;;;;;;4978627;28;20038;-65
2021/07/08 03:04:21;;;;;;;10.43;9.50;;;;;;;;;;4985345;28;20780;-66
2021/07/08 03:06:46;;;;;;;9.87;9.00;;;;;;;;;;4972378;28;20316;-65
2021/07/08 03:09:11;;;;;;;10.03;9.03;;;;;;;;;;4970469;28;20274;-66
2021/07/08 03:11:37;;;;;;;10.60;9.70;;;;;;;;;;4970405;28;20320;-65
2021/07/08 03:14:02;;;;;;;10.63;8.93;;;;;;;;;;4979452;28;20030;-66
2021/07/08 03:16:27;;;;;;;10.82;10.02;;;;;;;;;;4988066;28;20034;-66
2021/07/08 03:18:53;;;;;;;9.48;8.57;;;;;;;;;;4996940;28;20069;-65
2021/07/08 03:21:18;;;;;;;9.38;8.43;;;;;;;;;;4972264;28;20077;-66
2021/07/08 03:23:43;;;;;;;7.50;7.00;;;;;;;;;;4969711;28;20043;-65
2021/07/08 03:26:08;;;;;;;9.63;8.63;;;;;;;;;;4969799;28;20038;-65
2021/07/08 03:28:34;;;;;;;9.00;8.23;;;;;;;;;;4968752;28;20292;-66
2021/07/08 03:30:59;;;;;;;8.07;7.37;;;;;;;;;;4968482;28;20480;-65
2021/07/08 03:33:24;;;;;;;8.97;7.07;;;;;;;;;;4971232;28;20475;-65
2021/07/08 03:35:49;;;;;;;7.90;7.20;;;;;;;;;;4954152;28;20276;-66
2021/07/08 03:38:14;;;;;;;7.00;6.40;;;;;;;;;;4961687;28;20349;-66
2021/07/08 03:40:42;;;;;;;6.97;6.47;;;;;;;;;;4968562;28;20727;-66
2021/07/08 03:43:07;;;;;;;7.70;7.10;;;;;;;;;;4969417;28;20282;-66
2021/07/08 03:45:32;;;;;;;8.57;6.87;;;;;;;;;;4970433;28;20429;-66
2021/07/08 03:47:58;;;;;;;6.70;6.20;;;;;;;;;;4968535;28;20373;-66
2021/07/08 03:50:23;;;;;;;8.20;7.22;;;;;;;;;;4982135;28;20057;-66
2021/07/08 03:52:49;;;;;;;7.40;6.80;;;;;;;;;;4987345;28;20022;-66
2021/07/08 03:55:16;;;;;;;6.97;6.47;;;;;;;;;;4985785;28;20500;-66
2021/07/08 03:57:54;;;;;;;6.95;6.15;;;;;;;;;;4971344;28;20463;-66
2021/07/08 04:00:21;;;;;;;6.65;6.15;;;;;;;;;;4970052;28;20031;-67
2021/07/08 04:02:46;;;;;;;7.18;6.50;;;;;;;;;;4984081;28;20085;-66
2021/07/08 04:05:11;;;;;;;6.47;5.95;;;;;;;;;;4978225;28;20039;-66
2021/07/08 04:07:36;;;;;;;6.03;5.43;;;;;;;;;;4969631;28;20701;-66
2021/07/08 04:10:02;;;;;;;6.13;5.63;;;;;;;;;;4969432;28;20269;-66
2021/07/08 04:12:28;;;;;;;6.45;5.85;;;;;;;;;;4970938;28;20397;-66
2021/07/08 04:14:53;;;;;;;6.30;5.70;;;;;;;;;;4985785;28;20540;-67
2021/07/08 04:17:18;;;;;;;7.45;5.95;;;;;;;;;;4982820;28;20348;-66
2021/07/08 04:19:43;;;;;;;6.37;5.90;;;;;;;;;;4988601;28;20054;-66
2021/07/08 04:22:08;;;;;;;6.10;5.60;;;;;;;;;;4986360;28;20256;-66
2021/07/08 04:24:34;;;;;;;7.20;5.68;;;;;;;;;;4970997;28;20270;-67
2021/07/08 04:26:59;;;;;;;6.20;5.70;;;;;;;;;;4967851;28;20031;-66
2021/07/08 04:29:24;;;;;;;6.30;5.78;;;;;;;;;;4977049;28;20121;-66
2021/07/08 04:31:49;;;;;;;6.40;5.80;;;;;;;;;;4974195;28;20069;-67
2021/07/08 04:34:15;;;;;;;5.90;5.40;;;;;;;;;;4991898;28;20353;-67
2021/07/08 04:36:40;;;;;;;6.75;6.20;;;;;;;;;;4994383;28;20272;-67
2021/07/08 04:39:05;;;;;;;6.82;6.10;;;;;;;;;;4992492;28;20046;-67
2021/07/08 04:41:30;;;;;;;6.57;5.97;;;;;;;;;;4979151;28;20364;-65
2021/07/08 04:43:56;;;;;;;6.83;6.10;;;;;;;;;;4972593;28;20686;-66
2021/07/08 04:46:23;;;;;;;6.85;6.20;;;;;;;;;;4986659;28;20259;-67
2021/07/08 04:48:48;;;;;;;7.03;6.30;;;;;;;;;;4982536;28;20115;-67
2021/07/08 04:51:13;;;;;;;6.50;5.97;;;;;;;;;;4972989;28;20102;-66
2021/07/08 04:53:39;;;;;;;7.28;6.07;;;;;;;;;;4986406;28;20034;-66
2021/07/08 04:56:04;;;;;;;7.05;6.45;;;;;;;;;;4992270;28;20041;-67
2021/07/08 04:58:29;;;;;;;6.88;6.28;;;;;;;;;;4985811;28;20054;-67
2021/07/08 05:00:54;;;;;;;6.63;6.00;;;;;;;;;;4972760;28;20033;-66
2021/07/08 05:03:20;;;;;;;9.52;7.43;;;;;;;;;;4973911;28;20261;-67
2021/07/08 05:05:47;;;;;;;12.05;7.20;;;;;;;;;;4972249;28;20046;-67
2021/07/08 05:08:12;;;;;;;7.97;7.15;;;;;;;;;;4972586;28;20477;-67
2021/07/08 05:10:37;;;;;;;8.38;7.65;;;;;;;;;;4978639;28;20041;-67
2021/07/08 05:13:02;;;;;;;8.77;7.97;;;;;;;;;;4991357;28;20034;-68
2021/07/08 05:15:28;;;;;;;8.73;8.07;;;;;;;;;;4993813;28;20265;-67
2021/07/08 05:17:53;;;;;;;9.15;8.30;;;;;;;;;;4991080;28;20645;-68
2021/07/08 05:20:18;;;;;;;11.30;9.30;;;;;;;;;;4991496;28;20034;-67
2021/07/08 05:22:47;;;;;;;12.10;11.00;;;;;;;;;;4983957;28;20039;-67
2021/07/08 05:25:14;;;;;;;11.70;10.88;;;;;;;;;;4972123;28;20034;-67
2021/07/08 05:27:39;;;;;;;11.18;10.13;;;;;;;;;;4974025;28;20022;-67
2021/07/08 05:30:05;;;;;;;12.70;11.60;;;;;;;;;;4989656;28;20506;-67
2021/07/08 05:32:30;;;;;;;14.68;13.20;;;;;;;;;;4977484;28;20494;-67
2021/07/08 05:34:56;;;;;;;14.40;13.20;;;;;;;;;;4971637;28;20097;-67
2021/07/08 05:37:21;;;;;;;14.55;13.48;;;;;;;;;;4975728;28;20457;-67
2021/07/08 05:39:46;;;;;;;15.40;14.30;;;;;;;;;;4993434;28;20030;-67
2021/07/08 05:42:11;;;;;;;16.57;15.10;;;;;;;;;;4989968;28;20085;-67
2021/07/08 05:44:37;;;;;;;17.20;16.00;;;;;;;;;;4976949;28;20317;-67
2021/07/08 05:47:02;;;;;;;15.35;14.25;;;;;;;;;;4969109;28;20633;-66
2021/07/08 05:49:27;;;;;;;18.23;16.73;;;;;;;;;;4971305;28;20527;-67
2021/07/08 05:51:53;;;;;;;17.48;15.98;;;;;;;;;;4971273;28;20042;-67
2021/07/08 05:54:18;;;;;;;18.47;16.87;;;;;;;;;;4973148;28;20050;-67
2021/07/08 05:56:43;;;;;;;19.00;17.30;;;;;;;;;;4971246;28;20365;-67
2021/07/08 05:59:08;;;;;;;17.85;16.60;;;;;;;;;;4971545;28;20133;-67
2021/07/08 06:01:34;;;;;;;18.37;16.87;;;;;;;;;;4971321;28;20129;-67
2021/07/08 06:03:59;;;;;;;18.50;17.10;;;;;;;;;;4970799;28;20269;-67
2021/07/08 06:06:24;;;;;;;20.33;18.63;;;;;;;;;;4973132;28;20583;-69
2021/07/08 06:08:49;;;;;;;19.60;18.20;;;;;;;;;;4971203;28;20380;-67
2021/07/08 06:11:15;;;;;;;23.17;20.02;;;;;;;;;;4971180;28;20035;-67
2021/07/08 06:13:41;;;;;;;22.67;20.65;;;;;;;;;;4964517;28;20123;-68
2021/07/08 06:16:06;;;;;;;22.50;20.48;;;;;;;;;;4966494;28;20478;-69
2021/07/08 06:18:31;;;;;;;25.00;22.77;;;;;;;;;;4968776;28;20392;-67
2021/07/08 06:20:57;;;;;;;25.15;22.73;;;;;;;;;;4971204;28;20194;-67
2021/07/08 06:23:22;;;;;;;24.23;21.98;;;;;;;;;;4970595;28;20519;-67
2021/07/08 06:25:48;;;;;;;25.33;23.08;;;;;;;;;;4971204;28;20034;-67
2021/07/08 06:28:14;;;;;;;26.80;24.20;;;;;;;;;;4986087;28;20499;-67
2021/07/08 06:30:40;;;;;;;26.67;23.90;;;;;;;;;;4973311;28;20255;-67
2021/07/08 06:33:05;;;;;;;24.58;22.33;;;;;;;;;;4984863;28;20507;-67
2021/07/08 06:35:30;;;;;;;25.77;23.23;;;;;;;;;;4970951;28;20034;-67
2021/07/08 06:37:55;;;;;;;28.00;24.53;;;;;;;;;;4970894;28;20066;-67
2021/07/08 06:40:20;;;;;;;27.63;24.80;;;;;;;;;;4967214;28;20269;-67
2021/07/08 06:42:46;;;;;;;25.85;23.30;;;;;;;;;;4951885;28;20027;-69
2021/07/08 06:45:13;;;;;;;28.60;25.35;;;;;;;;;;4970089;28;20035;-67
2021/07/08 06:47:42;;;;;;;29.55;26.58;;;;;;;;;;4968645;28;20070;-67
2021/07/08 06:50:08;;;;;;;30.55;27.50;;;;;;;;;;4988673;28;20081;-68
2021/07/08 06:52:33;;;;;;;28.52;25.83;;;;;;;;;;4989936;28;20427;-68
2021/07/08 06:54:58;;;;;;;31.45;28.48;;;;;;;;;;4988678;28;20057;-67
2021/07/08 06:57:24;;;;;;;29.48;26.40;;;;;;;;;;4971206;28;20019;-68
2021/07/08 06:59:49;;;;;;;29.58;26.73;;;;;;;;;;4970726;28;20038;-67
2021/07/08 07:02:14;;;;;;;29.37;26.63;;;;;;;;;;4992075;28;20034;-68
2021/07/08 07:04:39;;;;;;;30.15;27.35;;;;;;;;;;4985609;28;20284;-67
2021/07/08 07:07:04;;;;;;;29.77;26.67;;;;;;;;;;4986836;28;20018;-67
2021/07/08 07:09:30;;;;;;;33.35;29.50;;;;;;;;;;4972256;28;20254;-68
2021/07/08 07:11:55;;;;;;;31.13;28.40;;;;;;;;;;4970085;28;20468;-68
2021/07/08 07:14:20;;;;;;;31.52;28.30;;;;;;;;;;4976149;28;20050;-67
2021/07/08 07:16:45;;;;;;;28.52;26.05;;;;;;;;;;4970099;28;20092;-68
2021/07/08 07:19:11;;;;;;;29.75;27.13;;;;;;;;;;4977757;28;20086;-67
2021/07/08 07:21:36;;;;;;;31.27;28.02;;;;;;;;;;4986963;28;20022;-67
2021/07/08 07:24:02;;;;;;;28.77;26.05;;;;;;;;;;5006266;28;20026;-67
2021/07/08 07:26:28;;;;;;;34.22;26.02;;;;;;;;;;4994880;28;20527;-66
2021/07/08 07:28:53;;;;;;;29.83;27.05;;;;;;;;;;4995884;28;20054;-67
2021/07/08 07:31:18;;;;;;;32.33;29.27;;;;;;;;;;5005589;28;20431;-67
2021/07/08 07:33:44;;;;;;;32.30;28.83;;;;;;;;;;4976170;28;20026;-67
2021/07/08 07:36:10;;;;;;;32.70;29.65;;;;;;;;;;4969890;28;20034;-67
2021/07/08 07:38:36;;;;;;;33.03;29.58;;;;;;;;;;4969877;28;20113;-67
2021/07/08 07:41:01;;;;;;;34.97;31.33;;;;;;;;;;4969772;28;20039;-67
2021/07/08 07:43:26;;;;;;;35.65;31.88;;;;;;;;;;4972302;28;20031;-67
2021/07/08 07:45:51;;;;;;;35.37;31.60;;;;;;;;;;4991122;28;20068;-68
2021/07/08 07:48:17;;;;;;;33.67;29.45;;;;;;;;;;4984456;28;20275;-68
2021/07/08 07:50:43;;;;;;;32.05;28.73;;;;;;;;;;4969546;28;20105;-67
2021/07/08 07:53:08;;;;;;;32.72;29.75;;;;;;;;;;4979342;28;20444;-68
2021/07/08 07:55:33;;;;;;;32.88;29.67;;;;;;;;;;4987595;28;20030;-68
2021/07/08 07:58:00;;;;;;;33.63;29.98;;;;;;;;;;4988892;28;20093;-68
2021/07/08 08:00:25;;;;;;;29.63;26.70;;;;;;;;;;4990762;28;20030;-67
2021/07/08 08:02:52;;;;;;;30.52;27.38;;;;;;;;;;4972829;28;20034;-68
2021/07/08 08:10:26;;;;;;;28.15;25.33;;;;;;;;;;4969210;28;20049;-68
2021/07/08 08:12:52;;;;;;;28.63;25.98;;;;;;;;;;4985366;28;20019;-68
2021/07/08 08:15:18;;;;;;;30.92;28.00;;;;;;;;;;4967866;28;20038;-68
2021/07/08 08:17:44;;;;;;;31.38;28.33;;;;;;;;;;4968800;28;20043;-68
2021/07/08 08:20:10;;;;;;;32.53;29.17;;;;;;;;;;4969039;28;20050;-68
2021/07/08 08:22:38;;;;;;;32.78;29.55;;;;;;;;;;4968681;28;20042;-68
2021/07/08 08:25:03;;;;;;;32.47;29.15;;;;;;;;;;4969061;28;20014;-68
2021/07/08 08:27:28;;;;;;;31.80;28.80;;;;;;;;;;4971041;28;20019;-69
2021/07/08 08:29:54;;;;;;;34.50;31.17;;;;;;;;;;4985137;28;20066;-68
2021/07/08 08:32:19;;;;;;;35.13;31.40;;;;;;;;;;4986767;28;20297;-68
2021/07/08 08:34:44;;;;;;;34.27;30.77;;;;;;;;;;4981895;28;20480;-69
2021/07/08 08:37:09;;;;;;;35.08;31.77;;;;;;;;;;4971032;28;20333;-69
2021/07/08 08:39:35;;;;;;;32.42;29.30;;;;;;;;;;5005470;28;20033;-68
2021/07/08 08:42:00;;;;;;;33.60;30.30;;;;;;;;;;4988777;28;20050;-69
2021/07/08 08:44:25;;;;;;;33.75;30.40;;;;;;;;;;4988365;28;20297;-70
2021/07/08 08:46:51;;;;;;;31.90;29.23;;;;;;;;;;4987227;28;20682;-69
2021/07/08 08:49:16;;;;;;;33.15;30.20;;;;;;;;;;4988184;28;20066;-68
2021/07/08 08:51:42;;;;;;;31.70;28.90;;;;;;;;;;5005504;28;20019;-68
2021/07/08 08:54:07;;;;;;;31.05;27.65;;;;;;;;;;4988072;28;20046;-68
2021/07/08 08:56:32;;;;;;;29.58;26.88;;;;;;;;;;4986937;28;20061;-68
2021/07/08 08:58:57;;;;;;;29.67;27.13;;;;;;;;;;5003436;28;20035;-68
2021/07/08 09:01:23;;;;;;;28.52;25.95;;;;;;;;;;4987216;28;20288;-68
2021/07/08 09:03:48;;;;;;;28.17;25.57;;;;;;;;;;4990141;28;20080;-69
2021/07/08 09:06:14;;;;;;;27.48;24.90;;;;;;;;;;4995352;28;20324;-69
2021/07/08 09:08:44;;;;;;;25.48;23.23;;;;;;;;;;4974385;28;20038;-68
2021/07/08 09:11:14;;;;;;;24.02;21.80;;;;;;;;;;4978809;28;20499;-70
2021/07/08 09:13:42;;;;;;;24.90;22.67;;;;;;;;;;4997186;28;20481;-70
2021/07/08 09:16:10;;;;;;;25.10;22.83;;;;;;;;;;4969064;28;20069;-68
2021/07/08 09:18:36;;;;;;;25.67;23.48;;;;;;;;;;4973440;28;20019;-68
2021/07/08 09:21:13;;;;;;;25.48;23.48;;;;;;;;;;4972397;28;20035;-69
2021/07/08 09:23:38;;;;;;;23.33;21.40;;;;;;;;;;4958249;28;20506;-69
2021/07/08 09:26:09;;;;;;;23.03;21.23;;;;;;;;;;4962060;28;20054;-68
2021/07/08 09:28:36;;;;;;;25.52;23.52;;;;;;;;;;4972278;28;20361;-69
2021/07/08 09:31:02;;;;;;;23.65;21.98;;;;;;;;;;4972174;28;20023;-69
2021/07/08 09:33:28;;;;;;;22.98;21.05;;;;;;;;;;4972974;28;20388;-69
2021/07/08 09:36:02;;;;;;;22.63;20.55;;;;;;;;;;4965489;28;20042;-70
2021/07/08 09:38:30;;;;;;;21.73;20.02;;;;;;;;;;4970710;28;20065;-69
2021/07/08 09:41:07;;;;;;;22.35;20.50;;;;;;;;;;4971928;28;20038;-71
2021/07/08 09:43:34;;;;;;;19.52;18.20;;;;;;;;;;4971486;28;20500;-70
2021/07/08 09:45:59;;;;;;;21.27;19.92;;;;;;;;;;4971859;28;20027;-70
2021/07/08 09:48:24;;;;;;;20.38;18.88;;;;;;;;;;4973593;28;20007;-71
2021/07/08 09:50:49;;;;;;;20.30;18.20;;;;;;;;;;4970515;28;20658;-70
2021/07/08 09:53:25;;;;;;;19.30;17.60;;;;;;;;;;4986055;28;20621;-69
2021/07/08 09:58:49;;;;;;;19.00;17.38;;;;;;;;;;4958854;28;20125;-69
2021/07/08 10:01:15;;;;;;;20.73;19.15;;;;;;;;;;4988474;28;20488;-69
2021/07/08 10:03:41;;;;;;;19.80;18.48;;;;;;;;;;4987523;28;20023;-69
2021/07/08 10:06:07;;;;;;;19.75;18.35;;;;;;;;;;4987547;28;20129;-69
2021/07/08 10:08:34;;;;;;;20.58;18.92;;;;;;;;;;4992974;28;20043;-69
2021/07/08 10:10:59;;;;;;;18.88;17.52;;;;;;;;;;4971180;28;20051;-69
2021/07/08 10:13:25;;;;;;;17.40;16.17;;;;;;;;;;4970923;28;20073;-68
2021/07/08 10:15:50;;;;;;;15.95;14.85;;;;;;;;;;4972025;28;20027;-69
2021/07/08 10:18:16;;;;;;;15.25;14.15;;;;;;;;;;4989565;28;20108;-69
2021/07/08 10:20:42;;;;;;;16.20;14.90;;;;;;;;;;4984248;28;20042;-68
2021/07/08 10:23:09;;;;;;;16.17;15.07;;;;;;;;;;4990326;28;20113;-69
2021/07/08 10:25:34;;;;;;;16.45;15.23;;;;;;;;;;5010752;28;20025;-68
2021/07/08 10:28:00;;;;;;;17.40;15.85;;;;;;;;;;5009431;28;20097;-69
2021/07/08 10:30:27;;;;;;;17.20;15.75;;;;;;;;;;4990857;28;20026;-68
2021/07/08 10:32:54;;;;;;;16.90;15.60;;;;;;;;;;4988533;28;20052;-68
2021/07/08 10:35:38;;;;;;;17.65;16.15;;;;;;;;;;4986864;28;20030;-69
2021/07/08 10:38:22;;;;;;;15.88;14.80;;;;;;;;;;4981680;28;20404;-68
2021/07/08 10:40:47;;;;;;;13.77;12.77;;;;;;;;;;4969517;28;20043;-69
2021/07/08 10:43:12;;;;;;;14.10;13.02;;;;;;;;;;4970239;28;20022;-69
2021/07/08 10:45:47;;;;;;;13.63;12.63;;;;;;;;;;4972592;28;20350;-69
2021/07/08 10:48:17;;;;;;;15.52;14.50;;;;;;;;;;4987188;28;20038;-68
2021/07/08 10:50:44;;;;;;;13.27;12.07;;;;;;;;;;4984012;28;20061;-69
2021/07/08 10:53:21;;;;;;;13.27;12.18;;;;;;;;;;4970138;28;20062;-69
2021/07/08 10:55:56;;;;;;;13.85;12.52;;;;;;;;;;4970306;28;20061;-69
2021/07/08 10:58:40;;;;;;;13.48;12.50;;;;;;;;;;4973832;28;20510;-69
2021/07/08 11:01:06;;;;;;;13.70;12.63;;;;;;;;;;4989807;28;20050;-69
2021/07/08 11:03:35;;;;;;;13.85;12.85;;;;;;;;;;5003898;28;20022;-68
2021/07/08 11:06:09;;;;;;;12.55;11.68;;;;;;;;;;4989458;28;20039;-69
2021/07/08 11:08:47;;;;;;;12.95;11.88;;;;;;;;;;4991387;28;20035;-69
2021/07/08 11:11:18;;;;;;;13.77;12.60;;;;;;;;;;4970418;28;20035;-69
2021/07/08 11:13:43;;;;;;;15.05;13.77;;;;;;;;;;4968650;28;20069;-69
2021/07/08 11:16:09;;;;;;;15.67;14.53;;;;;;;;;;4969755;28;20058;-69
2021/07/08 11:18:34;;;;;;;16.90;15.63;;;;;;;;;;4970482;28;20380;-68
2021/07/08 11:20:59;;;;;;;16.47;15.43;;;;;;;;;;4981570;28;20365;-69
2021/07/08 11:23:27;;;;;;;16.58;14.98;;;;;;;;;;4984499;28;20790;-68
2021/07/08 11:25:53;;;;;;;15.65;14.38;;;;;;;;;;4977454;28;20069;-69
2021/07/08 11:28:25;;;;;;;15.50;14.43;;;;;;;;;;4986412;28;20081;-68
2021/07/08 11:30:57;;;;;;;19.77;18.13;;;;;;;;;;4972031;28;20533;-68
2021/07/08 11:33:22;;;;;;;22.95;21.13;;;;;;;;;;4987869;28;20069;-68
2021/07/08 11:35:55;;;;;;;24.57;22.67;;;;;;;;;;4974111;28;20062;-68
2021/07/08 11:38:20;;;;;;;25.65;23.50;;;;;;;;;;4968450;28;20295;-68
2021/07/08 11:40:47;;;;;;;23.00;21.25;;;;;;;;;;4976382;28;20549;-69
2021/07/08 11:43:27;;;;;;;21.35;19.35;;;;;;;;;;4986864;28;20011;-68
2021/07/08 11:45:53;;;;;;;18.83;17.35;;;;;;;;;;4971626;28;20022;-68
2021/07/08 11:48:22;;;;;;;19.17;17.88;;;;;;;;;;4969415;28;20488;-69
2021/07/08 11:50:49;;;;;;;17.85;16.65;;;;;;;;;;4969401;28;20035;-68
2021/07/08 11:53:16;;;;;;;17.23;15.93;;;;;;;;;;4969259;28;20042;-68
2021/07/08 11:55:42;;;;;;;16.25;14.85;;;;;;;;;;4963462;28;20442;-68
2021/07/08 11:58:08;;;;;;;15.55;14.65;;;;;;;;;;4950245;28;20074;-68
2021/07/08 12:00:39;;;;;;;14.98;13.88;;;;;;;;;;4952221;28;20485;-68
2021/07/08 12:03:18;;;;;;;12.00;11.02;;;;;;;;;;4966596;28;20106;-68
2021/07/08 12:05:44;;;;;;;11.10;10.35;;;;;;;;;;4965749;28;20084;-68
2021/07/08 12:08:18;;;;;;;12.05;9.55;;;;;;;;;;4948876;28;20059;-69
2021/07/08 12:10:46;;;;;;;10.15;9.45;;;;;;;;;;4949683;28;20108;-69
2021/07/08 12:13:14;;;;;;;8.48;7.65;;;;;;;;;;4951398;28;20023;-68
2021/07/08 12:15:41;;;;;;;8.27;7.55;;;;;;;;;;4971165;28;20054;-69
2021/07/08 12:18:06;;;;;;;8.57;7.82;;;;;;;;;;4952171;28;20040;-69
2021/07/08 12:20:36;;;;;;;29.00;11.97;;;;;;;;;;4967949;28;20082;-69
2021/07/08 12:23:08;;;;;;;21.35;19.45;;;;;;;;;;4960331;28;20274;-68
2021/07/08 12:25:33;;;;;;;32.47;25.55;;;;;;;;;;4949909;28;20035;-70
2021/07/08 12:27:59;;;;;;;31.52;21.42;;;;;;;;;;4964994;28;20030;-72
2021/07/08 12:30:25;;;;;;;34.90;26.13;;;;;;;;;;4966609;23;20095;-72
2021/07/08 12:33:07;;;;;;;54.28;29.33;;;;;;;;;;4934605;28;20031;-74
2021/07/08 12:35:32;;;;;;;;;;;;;;;;;;4954543;28;20122;-71
2021/07/08 12:37:58;;;;;;;50.90;31.13;;;;;;;;;;4969216;28;20005;-73
2021/07/08 12:40:23;;;;;;;45.65;29.55;;;;;;;;;;4969356;28;20031;-72
2021/07/08 12:42:49;;;;;;;31.25;23.65;;;;;;;;;;4970761;28;20073;-73
2021/07/08 12:45:15;;;;;;;25.45;17.23;;;;;;;;;;4969298;28;20677;-72
2021/07/08 12:47:41;;;;;;;25.80;16.40;;;;;;;;;;4969319;28;20520;-73
2021/07/08 12:50:08;;;;;;;44.28;28.20;;;;;;;;;;4971953;28;20026;-71
2021/07/08 12:52:36;;;;;;;46.03;25.83;;;;;;;;;;4975101;28;20389;-71
2021/07/08 12:55:02;;;;;;;26.33;21.00;;;;;;;;;;4972416;28;20019;-72
2021/07/08 12:57:27;;;;;;;24.02;20.65;;;;;;;;;;4974626;28;20524;-70
2021/07/08 12:59:53;;;;;;;27.05;21.20;;;;;;;;;;4972872;28;20047;-71
2021/07/08 13:02:19;;;;;;;32.95;24.77;;;;;;;;;;4972204;28;20147;-71
2021/07/08 13:04:45;;;;;;;31.38;24.08;;;;;;;;;;4971310;28;20508;-71
2021/07/08 13:07:10;;;;;;;30.58;22.35;;;;;;;;;;4972542;28;20019;-71
2021/07/08 13:09:35;;;;;;;28.45;23.42;;;;;;;;;;4974729;28;20053;-71
2021/07/08 13:12:17;;;;;;;28.30;22.65;;;;;;;;;;4972611;28;20122;-71
2021/07/08 13:14:42;;;;;;;19.27;17.20;;;;;;;;;;4954718;28;20035;-71
2021/07/08 13:17:10;;;;;;;34.97;23.10;;;;;;;;;;4972413;28;20062;-70
2021/07/08 13:19:36;;;;;;;19.92;18.13;;;;;;;;;;4971027;28;20493;-72
2021/07/08 13:22:21;;;;;;;14.18;12.90;;;;;;;;;;4981527;28;20019;-71
2021/07/08 13:24:48;;;;;;;18.35;16.45;;;;;;;;;;4993764;28;20357;-72
2021/07/08 13:27:14;;;;;;;19.00;17.08;;;;;;;;;;4990559;28;20045;-70
2021/07/08 13:29:39;;;;;;;16.85;15.20;;;;;;;;;;4990565;28;20039;-70
2021/07/08 13:32:15;;;;;;;15.95;14.35;;;;;;;;;;4989759;28;20039;-70
2021/07/08 13:34:43;;;;;;;20.95;18.67;;;;;;;;;;4981709;28;20563;-71
2021/07/08 13:37:16;;;;;;;15.80;14.30;;;;;;;;;;4981272;28;20030;-70
2021/07/08 13:39:42;;;;;;;13.88;12.70;;;;;;;;;;4992128;28;20381;-71
2021/07/08 13:42:07;;;;;;;18.00;16.23;;;;;;;;;;4991332;28;20034;-70
2021/07/08 13:44:35;;;;;;;11.65;6.88;;;;;;;;;;4990374;28;20429;-70
2021/07/08 13:47:02;;;;;;;8.32;7.72;;;;;;;;;;4990945;28;20170;-71
2021/07/08 13:49:31;;;;;;;15.50;14.00;;;;;;;;;;4984032;28;20041;-71
2021/07/08 13:52:02;;;;;;;15.07;13.65;;;;;;;;;;4972465;28;20106;-70
2021/07/08 13:54:33;;;;;;;19.67;17.67;;;;;;;;;;4971734;28;20031;-70
2021/07/08 13:56:58;;;;;;;17.27;15.60;;;;;;;;;;4970332;28;20027;-70
2021/07/08 13:59:23;;;;;;;16.17;14.85;;;;;;;;;;4971702;28;20609;-70
2021/07/08 14:01:49;;;;;;;19.85;14.60;;;;;;;;;;4971871;28;20039;-70
2021/07/08 14:04:14;;;;;;;10.70;9.57;;;;;;;;;;4969473;28;20019;-70
2021/07/08 14:06:40;;;;;;;10.88;10.02;;;;;;;;;;4973370;28;20025;-71
2021/07/08 14:09:06;;;;;;;10.70;9.80;;;;;;;;;;4970369;28;20041;-71
2021/07/08 14:11:31;;;;;;;7.30;6.80;;;;;;;;;;4970473;28;20031;-70
2021/07/08 14:13:57;;;;;;;6.72;5.97;;;;;;;;;;4971560;28;20338;-73
2021/07/08 14:16:24;;;;;;;5.78;5.28;;;;;;;;;;4972077;28;20031;-71
2021/07/08 14:18:49;;;;;;;5.13;3.75;;;;;;;;;;4973199;28;20047;-71
2021/07/08 14:21:14;;;;;;;3.95;3.65;;;;;;;;;;4964095;28;20707;-71
2021/07/08 14:23:40;;;;;;;3.33;3.05;;;;;;;;;;4970966;28;20039;-71
2021/07/08 14:26:05;;;;;;;3.97;3.17;;;;;;;;;;4971200;28;20042;-71
2021/07/08 14:28:30;;;;;;;3.00;2.80;;;;;;;;;;4971353;28;20065;-72